Time,TemperatureC,DewpointC,PressurehPa,WindDirection,WindDirectionDegrees,WindSpeedKMH,WindSpeedGustKMH,Humidity,HourlyPrecipMM,Conditions,Clouds,dailyrainMM,SolarRadiationWatts/m^2,UVIndex,SoftwareType,DateUTC
2024-04-24 00:04:23,1.1,2.4,1005.5,NE,45,0,0,72,0.0,,,0.0,2,0,n/a,2024-04-23T22:04:23Z
2024-04-24 00:07:23,1.3,2.4,1005.5,NE,45,0,0,72.1,0.0,,,0.0,2,0,n/a,2024-04-23T22:07:23Z
2024-04-24 00:13:23,1.1,2.4,1005.5,NE,45,0,0,72.6,0.0,,,0.0,2,0,n/a,2024-04-23T22:13:23Z
2024-04-24 00:19:23,1,2.6,1005.5,NE,45,0,0,75,0.0,,,0.0,2,0,n/a,2024-04-23T22:19:23Z
2024-04-24 00:22:23,1.2,2.4,1005.5,East,90,2.4,2.6,74.7,0.0,,,0.0,2,0,n/a,2024-04-23T22:22:23Z
2024-04-24 00:28:19,1.2,2.4,1005.2,NE,55,1,1.3,74.7,0.0,,,0.0,2,0,n/a,2024-04-23T22:28:19Z
2024-04-24 00:34:23,1.3,2.6,1005.5,East,90,0.3,0.7,75.4,0.0,,,0.0,2,0,n/a,2024-04-23T22:34:23Z
2024-04-24 00:37:23,1.2,2.6,1005.2,East,90,1.7,1.9,75.2,0.0,,,0.0,2,0,n/a,2024-04-23T22:37:23Z
2024-04-24 00:43:19,1.3,2.7,1005.2,NE,45,1,1.9,75.6,0.0,,,0.0,0,0,n/a,2024-04-23T22:43:19Z
2024-04-24 00:49:23,1.5,2.6,1004.9,West,270,1.6,3.3,75.5,0.0,,,0.0,2,0,n/a,2024-04-23T22:49:23Z
2024-04-24 00:52:23,1.6,2.7,1004.9,WSW,247,0.6,0.6,75.4,0.0,,,0.0,2,0,n/a,2024-04-23T22:52:23Z
2024-04-24 00:58:19,1.7,2.6,1004.9,WSW,247,0.2,0.5,75.5,0.0,,,0.0,0,0,n/a,2024-04-23T22:58:19Z
2024-04-24 01:04:23,1.5,2.6,1005.2,North,0,0,0,75.1,0.0,,,0.0,2,0,n/a,2024-04-23T23:04:23Z
2024-04-24 01:07:23,1.5,2.7,1005.2,NNW,337,0,0,75.6,0.0,,,0.0,0,0,n/a,2024-04-23T23:07:23Z
2024-04-24 01:13:19,1.5,2.7,1004.9,NNE,20,0.4,0.6,75.9,0.0,,,0.0,2,0,n/a,2024-04-23T23:13:19Z
2024-04-24 01:19:23,1.6,2.7,1004.9,NE,45,0,0,76,0.0,,,0.0,0,0,n/a,2024-04-23T23:19:23Z
2024-04-24 01:22:23,1.6,2.8,1004.9,NE,45,0,0,76.3,0.0,,,0.0,0,0,n/a,2024-04-23T23:22:23Z
2024-04-24 01:28:23,1.6,2.7,1004.9,NE,45,0,0,76.4,0.0,,,0.0,2,0,n/a,2024-04-23T23:28:23Z
2024-04-24 01:34:23,1.7,2.9,1004.9,NNE,17,1.6,2.6,76.9,0.0,,,0.0,2,0,n/a,2024-04-23T23:34:23Z
2024-04-24 01:37:23,1.7,2.9,1004.7,NE,45,1.8,2,77.3,0.0,,,0.0,0,0,n/a,2024-04-23T23:37:23Z
2024-04-24 01:43:23,1.6,2.9,1004.7,NE,45,0,0,78.1,0.0,,,0.0,2,0,n/a,2024-04-23T23:43:23Z
2024-04-24 01:49:23,1.4,2.9,1004.4,ENE,67,2.9,3.2,78.1,0.0,,,0.0,2,0,n/a,2024-04-23T23:49:23Z
2024-04-24 01:52:20,1.3,2.8,1004.1,North,0,0,0,78,0.0,,,0.0,0,0,n/a,2024-04-23T23:52:20Z
2024-04-24 01:58:23,1,2.6,1004.1,NE,45,0.7,1.6,77.2,0.0,,,0.0,2,0,n/a,2024-04-23T23:58:23Z
2024-04-24 02:04:23,0.8,2.4,1003.9,NE,36,0.8,1.1,76.9,0.0,,,0.0,0,0,n/a,2024-04-24T00:04:23Z
2024-04-24 02:07:22,0.6,2.5,1003.9,NW,315,2.1,2.2,77,0.0,,,0.0,2,0,n/a,2024-04-24T00:07:22Z
2024-04-24 02:13:23,0.5,2.1,1003.9,NW,315,0,0,76.5,0.0,,,0.0,0,0,n/a,2024-04-24T00:13:23Z
2024-04-24 02:19:22,0.3,2,1003.9,NW,315,0.1,0.6,76.1,0.0,,,0.0,2,0,n/a,2024-04-24T00:19:22Z
2024-04-24 02:22:19,0.1,1.9,1003.9,NW,315,0,0,75.8,0.0,,,0.0,2,0,n/a,2024-04-24T00:22:19Z
2024-04-24 02:28:23,0.1,1.7,1003.9,NW,315,0.6,1.3,75.8,0.0,,,0.0,2,0,n/a,2024-04-24T00:28:23Z
2024-04-24 02:34:23,0,1.6,1003.9,NW,315,0,0,76,0.0,,,0.0,2,0,n/a,2024-04-24T00:34:23Z
2024-04-24 02:37:19,0,1.7,1003.6,NW,315,0.6,0.6,76.6,0.0,,,0.0,0,0,n/a,2024-04-24T00:37:19Z
2024-04-24 02:43:23,-0.3,1.6,1003.9,North,0,0.4,1,77.2,0.0,,,0.0,2,0,n/a,2024-04-24T00:43:23Z
2024-04-24 02:49:23,-0.4,1.4,1003.6,NNE,22,0.1,0.6,77.2,0.0,,,0.0,0,0,n/a,2024-04-24T00:49:23Z
2024-04-24 02:52:19,-0.5,1.3,1003.4,NNE,22,0.6,0.7,77.1,0.0,,,0.0,0,0,n/a,2024-04-24T00:52:19Z
2024-04-24 02:58:23,-0.4,1.4,1003.4,NNE,22,0,0,77.3,0.0,,,0.0,2,0,n/a,2024-04-24T00:58:23Z
2024-04-24 03:04:23,-0.5,1.3,1003.4,NNE,22,0,0,77.4,0.0,,,0.0,2,0,n/a,2024-04-24T01:04:23Z
2024-04-24 03:07:23,-0.4,1.3,1003.4,NNE,22,0,0,77.6,0.0,,,0.0,0,0,n/a,2024-04-24T01:07:23Z
2024-04-24 03:13:23,-0.6,1.3,1003.4,NNE,22,0,0,77.7,0.0,,,0.0,2,0,n/a,2024-04-24T01:13:23Z
2024-04-24 03:19:23,-0.6,1.2,1003.4,NNE,22,0,0,77.6,0.0,,,0.0,0,0,n/a,2024-04-24T01:19:23Z
2024-04-24 03:22:19,-0.5,1,1003.1,NNE,22,0,0,76.7,0.0,,,0.0,2,0,n/a,2024-04-24T01:22:19Z
2024-04-24 03:28:23,-0.5,1.2,1003.1,NNE,22,0,0,78.1,0.0,,,0.0,2,0,n/a,2024-04-24T01:28:23Z
2024-04-24 03:34:22,-0.6,1.2,1003.1,NNE,22,0,0,77.9,0.0,,,0.0,0,0,n/a,2024-04-24T01:34:22Z
2024-04-24 03:37:19,-0.6,1.1,1002.8,NNE,22,0,0,77.9,0.0,,,0.0,2,0,n/a,2024-04-24T01:37:19Z
2024-04-24 03:43:23,-0.7,1.2,1002.8,NNE,22,0,0,78,0.0,,,0.0,2,0,n/a,2024-04-24T01:43:23Z
2024-04-24 03:49:23,-0.7,1.1,1003.1,NNE,22,0,0,78,0.0,,,0.0,2,0,n/a,2024-04-24T01:49:23Z
2024-04-24 03:52:19,-0.7,1.1,1002.8,NNE,22,0,0,78.5,0.0,,,0.0,0,0,n/a,2024-04-24T01:52:19Z
2024-04-24 03:58:23,-0.8,1.1,1002.8,NNE,22,0,0,78.6,0.0,,,0.0,2,0,n/a,2024-04-24T01:58:23Z
2024-04-24 04:04:23,-0.7,1.1,1002.8,NNE,22,0,0,78.7,0.0,,,0.0,2,0,n/a,2024-04-24T02:04:23Z
2024-04-24 04:07:23,-0.8,1.1,1002.8,NNE,22,0,0,79,0.0,,,0.0,0,0,n/a,2024-04-24T02:07:23Z
2024-04-24 04:13:23,-0.8,1.1,1002.8,NNE,22,1.2,1.9,79.3,0.0,,,0.0,2,0,n/a,2024-04-24T02:13:23Z
2024-04-24 04:19:23,-0.8,1,1002.8,NNE,22,0.1,0.5,79.7,0.0,,,0.0,0,0,n/a,2024-04-24T02:19:23Z
2024-04-24 04:22:19,-0.8,1.1,1002.6,North,0,0,0,79.5,0.0,,,0.0,2,0,n/a,2024-04-24T02:22:19Z
2024-04-24 04:28:23,-0.8,1.1,1002.6,NNE,22,0,0,79.8,0.0,,,0.0,0,0,n/a,2024-04-24T02:28:23Z
2024-04-24 04:34:23,-0.8,1.1,1002.6,NNE,22,0,0,79.9,0.0,,,0.0,2,0,n/a,2024-04-24T02:34:23Z
2024-04-24 04:37:19,-0.8,1,1002.6,NNE,22,0,0,79.7,0.0,,,0.0,0,0,n/a,2024-04-24T02:37:19Z
2024-04-24 04:43:23,-0.8,1.1,1002.6,NNE,22,0.1,0.5,79.9,0.0,,,0.0,2,0,n/a,2024-04-24T02:43:23Z
2024-04-24 04:49:19,-0.9,1,1002.3,North,0,0,0,80,0.0,,,0.0,2,0,n/a,2024-04-24T02:49:19Z
2024-04-24 04:52:23,-1.1,0.8,1002.3,NNE,22,0,0,79.6,0.0,,,0.0,2,0,n/a,2024-04-24T02:52:23Z
2024-04-24 04:58:23,-1.1,0.9,1002.3,North,10,0.6,1.3,80,0.0,,,0.0,2,0,n/a,2024-04-24T02:58:23Z
2024-04-24 05:04:23,-1.3,0.9,1002.3,NNE,22,0.7,1.6,80.4,0.0,,,0.0,2,0,n/a,2024-04-24T03:04:23Z
2024-04-24 05:07:19,-1.4,0.8,1002.0,NNE,22,1.3,1.3,80.3,0.0,,,0.0,0,0,n/a,2024-04-24T03:07:19Z
2024-04-24 05:13:23,-1.5,0.7,1002.3,NNE,22,0,0,80.1,0.0,,,0.0,2,0,n/a,2024-04-24T03:13:23Z
2024-04-24 05:19:19,-1.6,0.6,1002.3,NW,315,1.1,3.3,79.9,0.0,,,0.0,2,0,n/a,2024-04-24T03:19:19Z
2024-04-24 05:22:23,-1.6,0.5,1002.3,NW,315,1.8,1.9,79.9,0.0,,,0.0,0,0,n/a,2024-04-24T03:22:23Z
2024-04-24 05:28:23,-1.8,0.4,1002.3,NW,315,0,0,79.9,0.0,,,0.0,2,0,n/a,2024-04-24T03:28:23Z
2024-04-24 05:34:19,-1.8,0.4,1002.0,NE,45,0.6,1.9,80.3,0.0,,,0.0,2,0,n/a,2024-04-24T03:34:19Z
2024-04-24 05:37:23,-1.9,0.2,1001.8,NE,45,0,0,79.7,0.0,,,0.0,2,0,n/a,2024-04-24T03:37:23Z
2024-04-24 05:43:22,-1.9,0.2,1001.8,NE,45,0.3,0.7,80,0.0,,,0.0,2,0,n/a,2024-04-24T03:43:22Z
2024-04-24 05:49:23,-1.8,0.4,1001.8,NE,45,0.8,1.3,81.1,0.0,,,0.0,2,0,n/a,2024-04-24T03:49:23Z
2024-04-24 05:52:23,-1.8,0.3,1001.8,NE,45,0,0,81,0.0,,,0.0,2,0,n/a,2024-04-24T03:52:23Z
2024-04-24 05:58:23,-1.8,0.3,1001.8,NE,45,0,0,81,0.0,,,0.0,2,0,n/a,2024-04-24T03:58:23Z
2024-04-24 06:04:19,-1.7,0.3,1001.8,NE,45,0,0,81.1,0.0,,,0.0,4,0,n/a,2024-04-24T04:04:19Z
2024-04-24 06:07:23,-1.6,0.3,1001.8,NE,45,0,0,81.2,0.0,,,0.0,4,0,n/a,2024-04-24T04:07:23Z
2024-04-24 06:13:23,-1.6,0.3,1001.8,NE,45,0,0,81.1,0.0,,,0.0,6,0,n/a,2024-04-24T04:13:23Z
2024-04-24 06:19:23,-1.4,0.4,1002.0,NE,45,0,0,81.1,0.0,,,0.0,8,0,n/a,2024-04-24T04:19:23Z
2024-04-24 06:22:23,-1.3,0.4,1001.8,NE,45,0,0,81.4,0.0,,,0.0,10,0,n/a,2024-04-24T04:22:23Z
2024-04-24 06:28:19,-1.3,0.4,1001.8,NE,45,0,0,81.8,0.0,,,0.0,14,0,n/a,2024-04-24T04:28:19Z
2024-04-24 06:34:23,-1.2,0.5,1001.8,NE,45,0,0,82,0.0,,,0.0,14,0,n/a,2024-04-24T04:34:23Z
2024-04-24 06:37:23,-1.1,0.6,1001.8,NE,45,0,0,82.2,0.0,,,0.0,16,0,n/a,2024-04-24T04:37:23Z
2024-04-24 06:43:19,-1,0.6,1002.0,NNE,22,0,0,82.2,0.0,,,0.0,20,0,n/a,2024-04-24T04:43:19Z
2024-04-24 06:49:23,-0.8,0.8,1001.8,NNE,22,0.1,0.6,82.4,0.0,,,0.0,24,0,n/a,2024-04-24T04:49:23Z
2024-04-24 06:52:23,-0.7,0.8,1001.8,NNE,22,0,0,82.6,0.0,,,0.0,24,0,n/a,2024-04-24T04:52:23Z
2024-04-24 06:58:19,-0.6,0.9,1001.8,NE,45,2.4,3.3,83.2,0.0,,,0.0,24,0,n/a,2024-04-24T04:58:19Z
2024-04-24 07:01:23,-0.4,0.9,1001.8,NE,45,0,0,83.3,0.0,,,0.0,26,0,n/a,2024-04-24T05:01:23Z
2024-04-24 07:28:23,0.5,1.6,1001.5,North,0,0.2,0.7,84.9,0.0,,,0.0,50,0,n/a,2024-04-24T05:28:23Z
2024-04-24 07:34:23,0.7,1.8,1001.5,ESE,112,0.1,0.5,84.9,0.0,,,0.0,56,0,n/a,2024-04-24T05:34:23Z
2024-04-24 07:37:19,0.8,1.9,1001.5,ESE,112,0,0,85,0.0,,,0.0,56,0,n/a,2024-04-24T05:37:19Z
2024-04-24 07:43:23,1,2,1001.5,ESE,112,0,0,84.9,0.0,,,0.0,54,0,n/a,2024-04-24T05:43:23Z
2024-04-24 07:49:23,1.2,2.1,1001.5,ESE,112,0,0,84.7,0.0,,,0.0,42,0,n/a,2024-04-24T05:49:23Z
2024-04-24 07:52:19,1.3,2,1001.3,East,90,1.3,1.3,84.5,0.0,,,0.0,40,0,n/a,2024-04-24T05:52:19Z
2024-04-24 07:58:23,1.4,2.2,1001.5,East,93,1.4,2.7,84.6,0.0,,,0.0,48,0,n/a,2024-04-24T05:58:23Z
2024-04-24 08:04:19,1.5,2.2,1001.3,ESE,112,2.5,3.1,84.3,0.0,,,0.0,50,0,n/a,2024-04-24T06:04:19Z
2024-04-24 08:07:23,1.6,2.2,1001.3,ESE,112,0,0,84.3,0.0,,,0.0,44,0,n/a,2024-04-24T06:07:23Z
2024-04-24 08:13:23,1.6,2.3,1001.3,ENE,75,2.7,3.9,84.3,0.0,,,0.0,44,0,n/a,2024-04-24T06:13:23Z
2024-04-24 08:19:19,1.7,2.4,1001.5,SE,135,1,1.7,84.7,0.0,,,0.0,50,0,n/a,2024-04-24T06:19:19Z
2024-04-24 08:22:23,1.8,2.4,1001.3,SE,135,0.5,1.1,84.2,0.0,,,0.0,52,0,n/a,2024-04-24T06:22:23Z
2024-04-24 08:28:19,1.9,2.4,1001.3,SSE,157,0,0,83.5,0.0,,,0.0,60,0,n/a,2024-04-24T06:28:19Z
2024-04-24 08:34:23,2.1,2.5,1001.5,NE,52,0.6,1.3,83.8,0.0,,,0.0,68,0,n/a,2024-04-24T06:34:23Z
2024-04-24 08:37:23,2.2,2.7,1001.3,North,0,1.1,1.3,83.9,0.0,,,0.0,58,0,n/a,2024-04-24T06:37:23Z
2024-04-24 08:43:19,2.2,2.6,1001.5,South,180,0.2,0.6,83.6,0.0,,,0.0,62,0,n/a,2024-04-24T06:43:19Z
2024-04-24 08:49:23,2.2,2.7,1001.5,SSW,203,5.3,5.9,83.6,0.0,,,0.0,72,0,n/a,2024-04-24T06:49:23Z
2024-04-24 08:52:23,2.1,2.7,1001.5,SW,225,1.2,1.3,83.2,0.0,,,0.0,76,0,n/a,2024-04-24T06:52:23Z
2024-04-24 08:58:23,2,2.7,1001.5,SSW,213,1.6,2.6,83,0.0,,,0.0,56,0,n/a,2024-04-24T06:58:23Z
2024-04-24 09:04:23,2.1,2.6,1001.3,South,186,3.3,3.9,83,0.0,,,0.0,62,0,n/a,2024-04-24T07:04:23Z
2024-04-24 09:07:23,2.1,2.7,1001.3,North,0,2.5,2.5,83.4,0.0,,,0.0,58,0,n/a,2024-04-24T07:07:23Z
2024-04-24 09:13:23,2.1,2.7,1001.3,SW,221,2.5,3.6,83.3,0.0,,,0.0,52,0,n/a,2024-04-24T07:13:23Z
2024-04-24 09:19:23,2.1,2.8,1001.3,West,263,4.9,5.8,83.7,0.0,,,0.0,54,0,n/a,2024-04-24T07:19:23Z
2024-04-24 09:22:19,2.1,2.8,1001.3,SW,225,3.9,3.9,83.6,0.0,,,0.0,52,0,n/a,2024-04-24T07:22:19Z
2024-04-24 09:28:22,2.3,2.9,1001.3,WSW,240,2.1,2.6,83.9,0.0,,,0.0,62,0,n/a,2024-04-24T07:28:22Z
2024-04-24 09:34:23,2.3,2.9,1001.3,South,180,3.4,4.2,84,0.0,,,0.0,54,0,n/a,2024-04-24T07:34:23Z
2024-04-24 09:37:19,2.3,3,1001.0,North,0,5.7,5.8,84.1,0.0,,,0.0,50,0,n/a,2024-04-24T07:37:19Z
2024-04-24 09:43:23,2.3,3,1001.3,SW,225,3.2,3.9,83.9,0.0,,,0.0,50,0,n/a,2024-04-24T07:43:23Z
2024-04-24 09:49:23,2.3,3.1,1001.0,South,190,0.8,1.6,84.1,0.0,,,0.0,54,0,n/a,2024-04-24T07:49:23Z
2024-04-24 09:52:19,2.6,3.1,1001.0,West,270,1.3,1.3,84.2,0.0,,,0.0,52,0,n/a,2024-04-24T07:52:19Z
2024-04-24 09:58:23,2.5,3.1,1001.0,SW,231,3.4,4.5,83.6,0.0,,,0.0,52,0,n/a,2024-04-24T07:58:23Z
2024-04-24 10:04:23,2.5,3.1,1001.0,WSW,245,3.6,4.8,83.7,0.0,,,0.0,54,0,n/a,2024-04-24T08:04:23Z
2024-04-24 10:07:23,2.6,3.1,1001.0,NW,312,2.1,2.2,83.3,0.0,,,0.0,64,0,n/a,2024-04-24T08:07:23Z
2024-04-24 10:13:23,2.6,3.1,1001.3,SW,231,4.6,7.8,83.5,0.0,,,0.0,56,0,n/a,2024-04-24T08:13:23Z
2024-04-24 10:19:23,2.6,3.3,1001.0,SSW,209,3.7,4.3,83.9,0.0,,,0.0,66,0,n/a,2024-04-24T08:19:23Z
2024-04-24 10:22:23,2.6,3.3,1001.0,SW,225,5.6,5.8,83.7,0.0,,,0.0,70,0,n/a,2024-04-24T08:22:23Z
2024-04-24 10:28:23,2.6,3.3,1001.3,WSW,251,5.3,6.9,83.8,0.0,,,0.0,90,0,n/a,2024-04-24T08:28:23Z
2024-04-24 10:34:23,3,3.6,1001.0,SSW,210,5.3,6.4,84.5,0.0,,,0.0,112,0,n/a,2024-04-24T08:34:23Z
2024-04-24 10:37:23,3.2,3.6,1001.0,SW,225,6.3,6.9,84.3,0.0,,,0.0,100,0,n/a,2024-04-24T08:37:23Z
2024-04-24 10:43:19,3.2,3.5,1001.0,WSW,247,3.6,4.6,83.9,0.0,,,0.0,116,0,n/a,2024-04-24T08:43:19Z
2024-04-24 10:49:23,2.8,3.5,1001.3,WSW,257,3.8,4.5,83.4,0.0,,,0.0,88,0,n/a,2024-04-24T08:49:23Z
2024-04-24 10:52:23,2.8,3.1,1001.0,West,270,1.1,1.7,82.3,0.0,,,0.0,84,0,n/a,2024-04-24T08:52:23Z
2024-04-24 10:58:19,2.6,3.2,1001.0,SW,225,1.4,2,82.6,0.0,,,0.0,84,0,n/a,2024-04-24T08:58:19Z
2024-04-24 11:04:23,2.8,3.4,1001.0,North,0,3.8,5.1,83.2,0.0,,,0.0,72,0,n/a,2024-04-24T09:04:23Z
2024-04-24 11:07:23,2.8,3.5,1001.0,West,270,1.7,2.2,83.5,0.0,,,0.0,62,0,n/a,2024-04-24T09:07:23Z
2024-04-24 11:13:19,3,3.4,1000.7,NNW,339,1.2,1.7,83.1,0.0,,,0.0,122,0,n/a,2024-04-24T09:13:19Z
2024-04-24 11:19:23,3.5,3.8,1001.0,WNW,285,3.8,5.3,84.1,0.0,,,0.0,104,0,n/a,2024-04-24T09:19:23Z
2024-04-24 11:22:23,3.4,3.8,1001.0,WSW,247,8.9,10.5,83.9,0.0,,,0.0,64,0,n/a,2024-04-24T09:22:23Z
2024-04-24 11:28:23,3.3,3.6,1000.7,NW,315,3.4,4.9,83.1,0.0,,,0.0,86,0,n/a,2024-04-24T09:28:23Z
2024-04-24 11:34:23,3.3,3.8,1000.7,WSW,258,2.3,2.6,83.6,0.0,,,0.0,110,0,n/a,2024-04-24T09:34:23Z
2024-04-24 11:37:23,3.3,3.7,1000.7,West,270,7.8,9.1,83,0.0,,,0.0,88,0,n/a,2024-04-24T09:37:23Z
2024-04-24 11:43:23,3.4,3.7,1000.7,West,276,6.1,7,83.1,0.0,,,0.0,84,0,n/a,2024-04-24T09:43:23Z
2024-04-24 11:49:23,3.6,3.8,1000.7,West,270,6.5,7.8,83.3,0.0,,,0.0,122,0,n/a,2024-04-24T09:49:23Z
2024-04-24 11:52:19,3.7,4.1,1000.7,SW,225,10.3,10.4,84,0.0,,,0.0,98,0,n/a,2024-04-24T09:52:19Z
2024-04-24 11:58:23,4.1,4.2,1000.7,WSW,240,6.6,8.5,84.3,0.0,,,0.0,184,0,n/a,2024-04-24T09:58:23Z
2024-04-24 12:04:23,4.5,4.4,1000.7,SW,223,4.1,6.4,84.1,0.0,,,0.0,216,0,n/a,2024-04-24T10:04:23Z
2024-04-24 12:07:24,4.8,4.6,1000.5,North,0,9.1,9.8,83.7,0.0,,,0.0,248,0,n/a,2024-04-24T10:07:24Z
2024-04-24 12:13:23,5.3,4.7,1000.7,West,277,6.7,9.1,83.5,0.0,,,0.0,264,0,n/a,2024-04-24T10:13:23Z
2024-04-24 12:19:19,5.4,4.9,1000.7,WNW,296,6.9,8.6,83,0.0,,,0.0,240,0,n/a,2024-04-24T10:19:19Z
2024-04-24 12:22:23,6,5.2,1000.5,SW,225,7.9,8.9,83.1,0.0,,,0.0,238,0,n/a,2024-04-24T10:22:23Z
2024-04-24 12:28:23,5.9,5.1,1000.5,West,277,4.2,5.9,81.8,0.0,,,0.0,614,0,n/a,2024-04-24T10:28:23Z
2024-04-24 12:34:19,5.6,5,1000.2,West,270,5.1,7.7,79.8,0.0,,,0.0,244,0,n/a,2024-04-24T10:34:19Z
2024-04-24 12:37:23,5.9,5,1000.2,West,259,1.3,1.5,79.6,0.0,,,0.0,462,0,n/a,2024-04-24T10:37:23Z
2024-04-24 12:43:23,6.6,5.5,1000.2,NW,320,2.2,3.8,79.8,0.0,,,0.0,820,0,n/a,2024-04-24T10:43:23Z
2024-04-24 12:49:23,6.4,5.6,1000.0,NNW,342,4.5,5.2,76,0.0,,,0.0,536,0,n/a,2024-04-24T10:49:23Z
2024-04-24 12:52:23,5.8,5.3,1000.0,North,0,1.4,1.9,73.7,0.0,,,0.0,280,0,n/a,2024-04-24T10:52:23Z
2024-04-24 12:58:23,6.3,5.1,999.7,SE,142,1,1.6,72.8,0.0,,,0.0,236,0,n/a,2024-04-24T10:58:23Z
2024-04-24 13:04:23,6.9,5.5,999.7,NE,55,2.6,3.3,74.5,0.0,,,0.0,262,0,n/a,2024-04-24T11:04:23Z
2024-04-24 13:07:23,7.2,4.9,999.7,East,100,4.4,4.6,71.9,0.0,,,0.0,246,0,n/a,2024-04-24T11:07:23Z
2024-04-24 13:13:19,6.9,4.4,999.7,East,83,3,3.6,70.3,0.0,,,0.0,264,0,n/a,2024-04-24T11:13:19Z
2024-04-24 13:19:23,7.3,4.7,999.7,NNE,22,0.3,0.6,71.4,0.0,,,0.0,260,0,n/a,2024-04-24T11:19:23Z
2024-04-24 13:22:23,7.3,4.8,999.7,SE,135,4,4.2,70.6,0.0,,,0.0,240,0,n/a,2024-04-24T11:22:23Z
2024-04-24 13:28:19,7.2,4.7,999.4,East,95,5.9,7.4,70.6,0.0,,,0.0,238,0,n/a,2024-04-24T11:28:19Z
2024-04-24 13:34:23,7,4.6,999.4,East,90,1.6,3.3,70.7,0.0,,,0.0,172,0,n/a,2024-04-24T11:34:23Z
2024-04-24 13:37:23,6.5,4.6,999.4,ENE,67,4.9,5.3,70.7,0.0,,,0.0,58,0,n/a,2024-04-24T11:37:23Z
2024-04-24 13:43:23,6.2,4.5,999.4,NW,315,0.4,0.6,71,0.0,,,0.0,54,0,n/a,2024-04-24T11:43:23Z
2024-04-24 13:49:23,5.8,4.6,999.4,NNE,22,0,0,71.2,0.0,,,0.0,48,0,n/a,2024-04-24T11:49:23Z
2024-04-24 13:52:23,5.7,4.7,999.4,North,0,4.3,4.5,72.2,0.0,,,0.0,62,0,n/a,2024-04-24T11:52:23Z
2024-04-24 13:58:23,4.8,4.8,999.4,North,0,7.1,7.8,73,0.0,,,0.0,116,0,n/a,2024-04-24T11:58:23Z
2024-04-24 14:04:23,5,4.8,999.4,North,4,6.2,7.4,74.2,0.0,,,0.0,192,0,n/a,2024-04-24T12:04:23Z
2024-04-24 14:07:19,5.2,5,999.4,North,0,6.5,6.6,75.6,0.0,,,0.0,266,0,n/a,2024-04-24T12:07:19Z
2024-04-24 14:13:23,5.1,4.9,999.2,North,0,7,7.6,75.4,0.0,,,0.0,154,0,n/a,2024-04-24T12:13:23Z
2024-04-24 14:19:23,5.2,4.9,999.2,North,358,3,3.3,75.6,0.0,,,0.0,124,0,n/a,2024-04-24T12:19:23Z
2024-04-24 14:22:19,5.5,5,999.2,East,90,2.6,2.6,75.9,0.0,,,0.0,148,0,n/a,2024-04-24T12:22:19Z
2024-04-24 14:28:23,6.4,5.4,999.2,ESE,122,0.4,0.7,76.5,0.0,,,0.0,596,0,n/a,2024-04-24T12:28:23Z
2024-04-24 14:34:19,6.6,5.5,998.9,North,0,1.8,3.3,75.1,0.0,,,0.0,344,0,n/a,2024-04-24T12:34:19Z
2024-04-24 14:37:23,7.3,6,998.6,NW,324,3.3,3.9,76.1,0.0,,,0.0,774,0,n/a,2024-04-24T12:37:23Z
2024-04-24 14:43:23,7.8,6.2,998.6,West,264,10.4,11.7,74.8,0.0,,,0.0,710,0,n/a,2024-04-24T12:43:23Z
2024-04-24 14:49:19,8.1,5.9,998.6,NW,324,4.7,5.2,72.2,0.0,,,0.0,298,0,n/a,2024-04-24T12:49:19Z
2024-04-24 14:52:23,8.1,5.7,998.6,NNW,336,5.8,6.2,71.1,0.0,,,0.0,256,0,n/a,2024-04-24T12:52:23Z
2024-04-24 14:58:23,8.2,5.7,998.6,SW,233,11,16.1,70.7,0.0,,,0.0,388,0,n/a,2024-04-24T12:58:23Z
2024-04-24 15:04:23,8.4,5.7,998.6,West,267,19.3,22,70.6,0.0,,,0.0,978,0,n/a,2024-04-24T13:04:23Z
2024-04-24 15:07:23,9.6,6.5,998.6,SW,234,15.5,17.6,72,0.0,,,0.0,372,0,n/a,2024-04-24T13:07:23Z
2024-04-24 15:13:23,9.2,5.9,998.6,SW,231,11.8,17.5,67.4,0.0,,,0.0,714,0,n/a,2024-04-24T13:13:23Z
2024-04-24 15:19:23,9.3,5.7,998.6,NW,318,15.7,18.9,65,0.0,,,0.0,782,0,n/a,2024-04-24T13:19:23Z
2024-04-24 15:22:23,9.9,6.2,998.4,South,169,9,9.8,66.4,0.0,,,0.0,782,0,n/a,2024-04-24T13:22:23Z
2024-04-24 15:28:19,9.6,6.2,998.4,SSW,194,11.2,12.3,65.1,0.0,,,0.0,762,0,n/a,2024-04-24T13:28:19Z
2024-04-24 15:34:23,9.9,6.6,998.6,WSW,242,12.3,16.2,65.5,0.0,,,0.0,762,0,n/a,2024-04-24T13:34:23Z
2024-04-24 15:37:23,9.8,6.2,998.4,WSW,258,18,18.7,63.4,0.0,,,0.0,244,0,n/a,2024-04-24T13:37:23Z
2024-04-24 15:43:19,9.3,6,998.4,SW,229,6.9,9,63.6,0.0,,,0.0,332,0,n/a,2024-04-24T13:43:19Z
2024-04-24 15:49:23,9.2,5.8,998.4,SW,225,13.3,14,63.3,0.0,,,0.0,296,0,n/a,2024-04-24T13:49:23Z
2024-04-24 15:52:23,8.8,5.8,998.4,WNW,286,20.4,21.5,64,0.0,,,0.0,390,0,n/a,2024-04-24T13:52:23Z
2024-04-24 15:58:23,8.8,5.6,998.4,SW,225,12.1,14.6,63.4,0.0,,,0.0,310,0,n/a,2024-04-24T13:58:23Z
2024-04-24 16:04:23,8.8,5.7,998.6,West,275,12.8,14.8,64,0.0,,,0.0,372,0,n/a,2024-04-24T14:04:23Z
2024-04-24 16:07:23,8.5,5.7,998.4,WNW,302,15.4,17,64.4,0.0,,,0.0,370,0,n/a,2024-04-24T14:07:23Z
2024-04-24 16:13:23,8.9,5.8,998.6,WSW,239,15.1,17.1,65,0.0,,,0.0,368,0,n/a,2024-04-24T14:13:23Z
2024-04-24 16:19:23,8.3,5.5,998.6,WSW,242,16,19.5,64.3,0.0,,,0.0,354,0,n/a,2024-04-24T14:19:23Z
2024-04-24 16:22:19,8.3,5.6,998.6,West,270,10.4,10.5,65.7,0.0,,,0.0,378,0,n/a,2024-04-24T14:22:19Z
2024-04-24 16:28:23,7.6,5.5,998.6,WSW,241,12.2,13.2,65.7,0.0,,,0.0,256,0,n/a,2024-04-24T14:28:23Z
2024-04-24 16:34:23,7.4,5.2,998.6,WSW,242,8.8,13.1,65.2,0.0,,,0.0,274,0,n/a,2024-04-24T14:34:23Z
2024-04-24 16:37:19,7.6,5.1,998.6,WSW,247,14.3,14.5,65.2,0.0,,,0.0,260,0,n/a,2024-04-24T14:37:19Z
2024-04-24 16:43:23,7.4,5.3,998.4,SW,225,10.1,12,65.7,0.0,,,0.0,348,0,n/a,2024-04-24T14:43:23Z
2024-04-24 16:49:19,8.4,5.5,998.1,North,0,5.3,9,65.9,0.0,,,0.0,498,0,n/a,2024-04-24T14:49:19Z
2024-04-24 16:52:23,8.8,5.5,998.1,South,180,8.9,9.4,64.9,0.0,,,0.0,414,0,n/a,2024-04-24T14:52:23Z
2024-04-24 16:58:23,8.7,5.3,998.1,SW,225,8.5,9.8,63.4,0.0,,,0.0,362,0,n/a,2024-04-24T14:58:23Z
2024-04-24 17:04:23,8.1,5.4,998.1,SSW,194,7.7,12.4,63.8,0.0,,,0.0,238,0,n/a,2024-04-24T15:04:23Z
2024-04-24 17:07:23,8.8,5.5,998.1,North,0,12.5,14.1,64.7,0.0,,,0.0,246,0,n/a,2024-04-24T15:07:23Z
2024-04-24 17:13:23,7.9,5.2,998.1,SW,215,9.9,12.9,63.6,0.0,,,0.0,234,0,n/a,2024-04-24T15:13:23Z
2024-04-24 17:19:23,7.4,5.2,998.1,SSW,212,12.5,15.7,64.9,0.0,,,0.0,190,0,n/a,2024-04-24T15:19:23Z
2024-04-24 17:22:23,7.5,5,998.1,WSW,247,8.8,9.3,64.7,0.0,,,0.0,154,0,n/a,2024-04-24T15:22:23Z
2024-04-24 17:28:23,8,4.8,998.1,SSW,201,11,13.1,63.6,0.0,,,0.0,570,0,n/a,2024-04-24T15:28:23Z
2024-04-24 17:34:23,9.5,5.5,997.9,SW,217,6.9,11,64.9,0.0,,,0.0,620,0,n/a,2024-04-24T15:34:23Z
2024-04-24 17:37:23,9.4,5.6,997.9,South,191,12.2,12.3,63.9,0.0,,,0.0,216,0,n/a,2024-04-24T15:37:23Z
2024-04-24 17:43:19,9.5,5.2,998.1,WSW,255,9.1,11.1,62.1,0.0,,,0.0,240,0,n/a,2024-04-24T15:43:19Z
2024-04-24 17:49:23,10.5,5.4,998.1,WSW,248,5.9,9.2,62.1,0.0,,,0.0,582,0,n/a,2024-04-24T15:49:23Z
2024-04-24 17:52:23,9.7,5.6,997.9,South,180,11.2,11.8,62,0.0,,,0.0,134,0,n/a,2024-04-24T15:52:23Z
2024-04-24 17:58:19,8.7,5,997.9,South,180,8.8,12.5,61,0.0,,,0.0,116,0,n/a,2024-04-24T15:58:19Z
2024-04-24 18:04:23,8.5,4.9,997.9,WNW,292,6.1,7,62.5,0.0,,,0.0,104,0,n/a,2024-04-24T16:04:23Z
2024-04-24 18:07:23,8,5.1,997.6,South,169,8.1,8.6,63.2,0.0,,,0.0,62,0,n/a,2024-04-24T16:07:23Z